Pagina principale
METAR-TAF:

METAR-TAF

Aeroporti :

Yüksekova, Turchia

latitudine: 37-33-06N, longitudine: 44-14-01E, altezza: 1950 m

Osservazione

Il bollettino è stato emesso 1 ora e 9 minuti fa, alle 05:50 UTC
Vento 5 kt da ovest, variando fra sud-ovest e ovest/nord-ovest
Temperature 22°C
Umidità 50%
Pressione 1020 hPa
Visibilità 10 km o più
nessuna nube inferiore a 1500 m e nessun cumulonembo

METAR: LTCW 270550Z 26005KT 220V300 CAVOK 22/11 Q1020

Ora: 09:59 (06:59 UTC)

Previsione

Il bollettino è stato emesso 2 ore e 19 minuti fa, alle 04:40 UTC
Previsione valida dal 27 alle 06 UTC al 27 alle 15 UTC
Vento 2 kt da direzioni variabili
Visibilità 10 km o più
nessuna nube inferiore a 1500 m e nessun cumulonembo

TAF: LTCW 270440Z 2706/2715 VRB02KT CAVOK

Osservazioni e previsioni meteorologiche di più di 4000 aeroporti (messaggi METAR e TAF).

Le stazioni disponibili sono rappresentate dai dischi gialli e rossi sulla carta.

Puntare il mouse per vedere il nome della stazione.

Clicca sopra per visualizzare le osservazioni e previsioni meteorologiche.

Per cambiare la mappa : fare clic sui pulsanti verdi con una croce nera per ingrandire, il pulsante verde con un trattino per diminuire, o sulla freccia verde per le mappe adiacenti.


METAR-TAF: